Time;durP1;ratioP1;P1;durP2;ratioP2;P2;SDS_P1;SDS_P2;PMS_P1;PMS_P2;Temp;Humidity;BMP_temperature;BMP_pressure;BME280_temperature;BME280_humidity;BME280_pressure;Samples;Min_cycle;Max_cycle;Signal;HPM_P1;HPM_P2
2022/05/08 00:00:53;;;;;;;5.10;3.60;;;;;;;6.98;100.00;97214.31;10412141;28;20181;-55
2022/05/08 00:05:53;;;;;;;6.63;4.10;;;;;;;6.86;100.00;97208.31;10412583;28;20315;-55
2022/05/08 00:10:54;;;;;;;4.40;4.00;;;;;;;6.81;100.00;97215.63;10412313;28;20192;-54
2022/05/08 00:15:54;;;;;;;8.07;4.30;;;;;;;6.85;100.00;97211.84;10412191;28;20228;-53
2022/05/08 00:20:54;;;;;;;7.50;4.13;;;;;;;6.82;100.00;97203.47;10411940;28;20188;-54
2022/05/08 00:25:55;;;;;;;5.70;4.17;;;;;;;6.74;100.00;97204.88;10411618;28;20231;-55
2022/05/08 00:30:55;;;;;;;5.67;4.67;;;;;;;6.66;100.00;97199.47;10412604;28;20196;-53
2022/05/08 00:35:56;;;;;;;6.90;4.60;;;;;;;6.70;100.00;97194.84;10411392;28;20236;-57
2022/05/08 00:40:56;;;;;;;7.07;4.67;;;;;;;6.65;100.00;97190.00;10411497;28;20239;-55
2022/05/08 00:45:57;;;;;;;5.97;4.40;;;;;;;6.62;100.00;97185.03;10411111;28;20220;-53
2022/05/08 00:50:57;;;;;;;8.27;5.10;;;;;;;6.65;100.00;97182.19;10411121;28;20821;-54
2022/05/08 00:55:57;;;;;;;7.27;4.10;;;;;;;6.59;100.00;97185.25;10407843;28;20220;-53
2022/05/08 01:00:58;;;;;;;6.40;4.63;;;;;;;6.58;100.00;97183.59;10406932;28;20220;-57
2022/05/08 01:06:03;;;;;;;6.27;4.77;;;;;;;6.72;100.00;97187.72;10407203;28;20262;-54
2022/05/08 01:11:05;;;;;;;10.33;4.70;;;;;;;6.74;100.00;97186.66;10409136;28;20303;-53
2022/05/08 01:16:08;;;;;;;6.23;4.67;;;;;;;6.61;100.00;97183.34;10415821;28;20244;-55
2022/05/08 01:21:09;;;;;;;8.67;5.43;;;;;;;6.46;100.00;97182.75;10415065;28;20220;-57
2022/05/08 01:26:10;;;;;;;7.63;5.70;;;;;;;6.34;100.00;97181.97;10413594;28;20266;-56
2022/05/08 01:31:10;;;;;;;7.80;5.60;;;;;;;6.32;100.00;97188.22;10415144;28;20610;-57
2022/05/08 01:36:11;;;;;;;6.63;5.13;;;;;;;6.29;100.00;97189.28;10414844;28;20239;-57
2022/05/08 01:41:11;;;;;;;9.10;5.57;;;;;;;6.36;100.00;97181.84;10414767;28;20209;-58
2022/05/08 01:46:12;;;;;;;5.83;5.20;;;;;;;6.37;100.00;97183.47;10414460;28;20372;-59
2022/05/08 01:51:12;;;;;;;7.43;5.37;;;;;;;6.36;100.00;97187.03;10414789;28;20192;-60
2022/05/08 01:56:13;;;;;;;13.07;4.80;;;;;;;6.23;100.00;97181.94;10414106;28;20248;-58
2022/05/08 02:01:14;;;;;;;5.70;4.87;;;;;;;6.22;100.00;97180.31;10413998;28;20799;-60
2022/05/08 02:06:16;;;;;;;5.30;4.80;;;;;;;6.18;100.00;97179.69;10397223;28;20714;-57
2022/05/08 02:11:18;;;;;;;8.73;6.27;;;;;;;6.30;100.00;97184.91;10415249;28;20189;-58
2022/05/08 02:16:18;;;;;;;7.60;5.27;;;;;;;6.41;100.00;97187.50;10413778;28;20220;-58
2022/05/08 02:21:18;;;;;;;9.60;5.37;;;;;;;6.50;100.00;97199.00;10413297;28;20224;-59
2022/05/08 02:26:19;;;;;;;11.77;5.80;;;;;;;6.44;100.00;97205.50;10413489;28;20259;-57
2022/05/08 02:31:19;;;;;;;7.33;5.73;;;;;;;6.39;100.00;97200.63;10413202;28;20295;-58
2022/05/08 02:36:19;;;;;;;8.70;6.03;;;;;;;6.19;100.00;97190.94;10413156;28;20282;-55
2022/05/08 02:41:20;;;;;;;6.50;5.67;;;;;;;5.98;100.00;97202.03;10412998;28;20661;-55
2022/05/08 02:46:20;;;;;;;9.03;5.83;;;;;;;6.03;100.00;97212.06;10412381;28;20637;-56
2022/05/08 02:51:20;;;;;;;8.33;6.13;;;;;;;6.01;100.00;97209.59;10412775;28;20667;-54
2022/05/08 03:01:43;;;;;;;8.67;6.23;;;;;;;5.90;100.00;97201.75;10411619;28;20327;-58
2022/05/08 03:06:45;;;;;;;9.50;5.13;;;;;;;5.95;100.00;97204.00;10411367;28;20346;-56
2022/05/08 03:11:45;;;;;;;8.00;5.97;;;;;;;5.95;100.00;97210.00;10412016;28;20675;-53
2022/05/08 03:16:47;;;;;;;9.53;6.67;;;;;;;6.04;100.00;97217.16;10411452;28;20247;-56
2022/05/08 03:21:51;;;;;;;8.27;6.70;;;;;;;6.00;100.00;97213.16;10411340;28;20227;-55
2022/05/08 03:26:51;;;;;;;8.83;6.20;;;;;;;6.05;100.00;97215.41;10410893;28;20630;-58
2022/05/08 03:31:55;;;;;;;12.30;6.23;;;;;;;6.11;100.00;97227.09;10410772;28;20219;-57
2022/05/08 03:36:55;;;;;;;8.00;5.83;;;;;;;6.17;100.00;97226.63;10410292;28;20248;-54
2022/05/08 03:41:56;;;;;;;8.47;6.60;;;;;;;6.16;100.00;97233.63;10410403;28;20244;-59
2022/05/08 03:46:56;;;;;;;8.00;6.13;;;;;;;6.15;100.00;97231.13;10410408;28;20220;-53
2022/05/08 03:51:57;;;;;;;10.17;6.27;;;;;;;6.07;100.00;97232.53;10410118;28;20249;-57
2022/05/08 03:56:57;;;;;;;7.00;6.30;;;;;;;6.17;100.00;97237.03;10409708;28;20299;-55
2022/05/08 04:01:57;;;;;;;9.00;6.60;;;;;;;6.23;100.00;97231.38;10409440;28;20224;-53
2022/05/08 04:06:58;;;;;;;11.70;6.23;;;;;;;6.27;100.00;97242.41;10408905;28;20237;-56
2022/05/08 04:11:58;;;;;;;7.53;6.17;;;;;;;6.23;100.00;97252.19;10409607;28;20189;-54
2022/05/08 04:16:59;;;;;;;11.40;6.57;;;;;;;6.39;100.00;97247.47;10408828;28;20268;-53
2022/05/08 04:27:18;;;;;;;13.20;8.97;;;;;;;6.56;100.00;97246.19;10408792;28;20212;-54
2022/05/08 04:32:19;;;;;;;11.50;6.77;;;;;;;6.60;100.00;97254.59;10408469;28;20211;-54
2022/05/08 04:37:19;;;;;;;6.27;5.17;;;;;;;6.75;100.00;97260.38;10408462;28;20239;-55
2022/05/08 04:42:19;;;;;;;10.43;5.77;;;;;;;6.92;100.00;97259.91;10408338;28;20220;-53
2022/05/08 04:47:20;;;;;;;10.77;6.23;;;;;;;6.96;100.00;97263.09;10407150;28;20223;-56
2022/05/08 04:52:21;;;;;;;10.60;5.37;;;;;;;7.08;100.00;97269.94;10408386;28;20192;-54
2022/05/08 04:57:21;;;;;;;8.73;6.40;;;;;;;7.16;100.00;97268.53;10407676;28;20212;-55
2022/05/08 05:02:21;;;;;;;7.67;6.30;;;;;;;7.30;100.00;97268.25;10407772;28;20258;-54
2022/05/08 05:07:22;;;;;;;10.90;6.30;;;;;;;7.48;100.00;97266.78;10407491;28;20320;-54
2022/05/08 05:12:23;;;;;;;8.67;6.13;;;;;;;7.75;100.00;97268.13;10456123;22;20309;-55
2022/05/08 05:17:24;;;;;;;6.67;5.70;;;;;;;8.06;100.00;97265.59;10448495;28;20196;-54
2022/05/08 05:22:25;;;;;;;5.87;5.00;;;;;;;8.48;100.00;97267.38;10448225;28;20673;-50
2022/05/08 05:27:25;;;;;;;7.13;5.40;;;;;;;8.80;100.00;97269.03;10448442;28;20266;-53
2022/05/08 05:32:26;;;;;;;9.03;4.77;;;;;;;9.46;100.00;97282.44;10448122;28;20211;-52
2022/05/08 05:37:26;;;;;;;6.87;4.90;;;;;;;9.90;100.00;97281.22;10448384;28;20214;-52
2022/05/08 05:42:26;;;;;;;7.93;4.80;;;;;;;10.30;100.00;97288.06;10447811;28;20776;-51
2022/05/08 05:52:46;;;;;;;8.33;5.00;;;;;;;10.86;100.00;97283.81;10447620;28;20208;-59
2022/05/08 05:57:46;;;;;;;7.50;4.83;;;;;;;11.62;100.00;97292.38;10450296;28;20200;-56
2022/05/08 06:02:47;;;;;;;6.80;4.63;;;;;;;12.65;100.00;97271.75;10454994;28;20306;-53
2022/05/08 06:07:47;;;;;;;7.97;4.70;;;;;;;13.67;93.98;97259.44;10455021;28;20219;-56
2022/05/08 06:12:48;;;;;;;4.20;3.80;;;;;;;14.72;84.61;97213.94;10453396;28;20263;-57
2022/05/08 06:17:48;;;;;;;6.65;4.13;;;;;;;15.51;81.07;97213.03;10451655;28;20215;-55
2022/05/08 06:22:49;;;;;;;7.70;5.70;;;;;;;15.98;78.09;97196.19;10454522;28;20227;-56
2022/05/08 06:27:49;;;;;;;8.40;5.50;;;;;;;16.36;76.94;97205.94;10454908;28;20299;-57
2022/05/08 06:32:49;;;;;;;5.22;4.32;;;;;;;16.64;73.78;97198.16;10454409;28;20208;-59
2022/05/08 06:37:50;;;;;;;6.18;4.78;;;;;;;16.85;72.22;97188.69;10454354;28;20555;-56
2022/05/08 06:42:50;;;;;;;8.10;4.65;;;;;;;17.08;68.60;97156.81;10454238;28;20220;-58
2022/05/08 06:47:50;;;;;;;4.97;4.35;;;;;;;17.79;67.71;97156.06;10452555;28;20275;-57
2022/05/08 06:52:51;;;;;;;8.27;4.85;;;;;;;17.42;70.53;97219.72;10451962;28;20211;-56
2022/05/08 06:57:51;;;;;;;5.90;5.07;;;;;;;17.10;70.13;97208.56;10441884;28;20190;-57
2022/05/08 07:02:51;;;;;;;8.43;5.53;;;;;;;17.43;69.78;97213.41;10404237;28;20312;-55
2022/05/08 07:07:52;;;;;;;7.18;5.55;;;;;;;17.79;67.21;97164.84;10411618;28;20189;-56
2022/05/08 07:12:52;;;;;;;6.03;4.40;;;;;;;19.39;64.89;97151.63;10411268;28;20271;-56
2022/05/08 07:17:52;;;;;;;6.53;4.97;;;;;;;18.78;62.34;97098.53;10411838;28;20197;-60
2022/05/08 07:22:53;;;;;;;6.47;4.43;;;;;;;20.47;60.04;97097.38;10411270;28;20229;-56
2022/05/08 07:27:53;;;;;;;6.43;4.40;;;;;;;21.09;58.17;97098.78;10410374;28;20228;-54
2022/05/08 07:32:54;;;;;;;5.35;4.80;;;;;;;21.06;56.70;97057.38;10410349;28;20223;-55
2022/05/08 07:37:55;;;;;;;8.25;4.80;;;;;;;21.63;55.59;97068.06;10410744;28;20185;-59
2022/05/08 07:42:56;;;;;;;6.80;5.50;;;;;;;21.37;56.48;97085.03;10410703;28;20235;-56
2022/05/08 07:47:57;;;;;;;5.60;4.82;;;;;;;22.15;54.54;97064.28;10410415;28;20189;-57
2022/05/08 07:52:57;;;;;;;6.22;4.60;;;;;;;21.87;55.66;97102.94;10403755;28;20205;-59
2022/05/08 07:57:58;;;;;;;5.50;4.75;;;;;;;20.90;57.36;97127.94;10397772;28;20199;-60
2022/05/08 08:02:58;;;;;;;5.90;5.30;;;;;;;22.65;53.12;97074.84;10417649;28;20217;-62
2022/05/08 08:08:00;;;;;;;7.38;5.30;;;;;;;21.78;54.72;97096.25;10409633;28;20331;-58
2022/05/08 08:13:01;;;;;;;9.45;5.30;;;;;;;22.87;52.81;97079.69;10409044;28;20270;-62
2022/05/08 08:18:01;;;;;;;7.22;5.80;;;;;;;22.04;54.15;97093.31;10409263;28;20200;-59
2022/05/08 08:23:02;;;;;;;7.35;5.72;;;;;;;21.84;56.40;97148.72;10408612;28;20228;-60
2022/05/08 08:28:02;;;;;;;9.93;5.82;;;;;;;21.72;57.26;97160.06;10409229;28;20250;-61
2022/05/08 08:33:02;;;;;;;7.18;5.40;;;;;;;22.80;53.21;97093.13;10408652;28;20212;-60
2022/05/08 08:38:05;;;;;;;8.23;5.65;;;;;;;22.18;55.63;97150.06;10408554;28;20192;-60
2022/05/08 08:43:09;;;;;;;7.00;5.60;;;;;;;22.69;55.39;97157.97;10408181;28;20289;-60
2022/05/08 08:48:18;;;;;;;6.55;5.88;;;;;;;22.93;56.24;97177.63;10398381;28;20193;-62
2022/05/08 08:53:18;;;;;;;7.93;5.75;;;;;;;23.51;54.16;97153.03;10369717;28;20279;-59
2022/05/08 08:58:19;;;;;;;9.45;6.68;;;;;;;23.21;56.25;97197.69;10366715;28;20258;-60
2022/05/08 09:03:25;;;;;;;8.43;6.82;;;;;;;23.10;54.71;97154.63;10366348;28;20228;-61
2022/05/08 09:08:26;;;;;;;8.52;6.32;;;;;;;22.91;54.67;97153.81;10366804;28;20280;-61
2022/05/08 09:13:31;;;;;;;15.30;6.13;;;;;;;21.63;56.77;97181.91;10366495;28;20618;-59
2022/05/08 09:18:47;;;;;;;9.27;6.38;;;;;;;21.07;60.35;97253.50;10365844;28;20194;-59
2022/05/08 09:23:47;;;;;;;12.57;7.80;;;;;;;21.39;60.78;97266.88;10366646;28;20279;-57
2022/05/08 09:28:48;;;;;;;10.60;7.00;;;;;;;21.52;60.00;97255.38;10366803;28;20284;-60
2022/05/08 09:33:51;;;;;;;8.93;6.47;;;;;;;22.23;59.03;97258.81;10370651;28;20232;-60
2022/05/08 09:38:59;;;;;;;12.82;7.38;;;;;;;20.68;63.43;97313.78;10374840;28;20185;-59
2022/05/08 09:44:16;;;;;;;8.32;7.32;;;;;;;19.77;65.92;97345.16;10377732;28;20299;-60
2022/05/08 09:49:21;;;;;;;14.65;8.00;;;;;;;19.91;66.24;97354.00;10377939;28;20193;-59
2022/05/08 09:54:21;;;;;;;8.50;7.43;;;;;;;19.92;64.57;97305.13;10371851;28;20568;-58
2022/05/08 09:59:22;;;;;;;10.43;7.15;;;;;;;20.10;63.96;97298.38;10372483;28;20201;-60
2022/05/08 10:04:22;;;;;;;12.35;8.00;;;;;;;18.61;69.26;97371.41;10373265;28;20324;-60
2022/05/08 10:14:41;;;;;;;7.18;6.35;;;;;;;19.11;67.85;97342.16;10372627;28;20237;-58
2022/05/08 10:19:45;;;;;;;11.25;6.07;;;;;;;19.92;64.13;97280.34;10373145;28;20664;-59
2022/05/08 10:24:54;;;;;;;5.85;5.22;;;;;;;20.58;61.32;97244.13;10372582;28;20721;-59
2022/05/08 10:29:54;;;;;;;6.80;5.20;;;;;;;20.33;61.65;97242.13;10372709;28;20193;-58
2022/05/08 10:35:16;;;;;;;11.52;5.35;;;;;;;19.56;62.75;97266.34;10372347;28;20209;-60
2022/05/08 10:40:22;;;;;;;7.90;6.75;;;;;;;19.38;66.02;97330.66;10372280;28;20205;-58
2022/05/08 10:45:29;;;;;;;11.80;6.47;;;;;;;18.35;68.58;97347.09;10370380;28;20286;-57
2022/05/08 10:50:29;;;;;;;12.02;6.70;;;;;;;18.71;68.88;97358.59;10371610;28;20307;-60
2022/05/08 10:55:30;;;;;;;7.88;7.07;;;;;;;18.84;67.64;97329.50;10354201;28;20187;-60
2022/05/08 11:00:30;;;;;;;8.25;6.90;;;;;;;19.16;68.95;97353.84;10371020;28;20276;-59
2022/05/08 11:05:37;;;;;;;8.60;7.75;;;;;;;19.54;67.20;97324.19;10370650;28;20287;-59
2022/05/08 11:10:41;;;;;;;7.93;6.60;;;;;;;20.49;64.62;97278.16;10370792;28;20229;-58
2022/05/08 11:15:48;;;;;;;9.30;5.97;;;;;;;20.42;64.31;97283.47;10391605;23;20229;-55
2022/05/08 11:21:00;;;;;;;8.77;6.55;;;;;;;20.80;62.09;97239.44;10370775;28;20186;-58
2022/05/08 11:26:01;;;;;;;5.53;5.03;;;;;;;20.22;65.09;97310.06;10370269;28;20213;-54
2022/05/08 11:31:13;;;;;;;9.88;5.70;;;;;;;20.87;62.33;97255.38;10370211;28;20201;-55
2022/05/08 11:36:13;;;;;;;9.27;5.95;;;;;;;20.80;63.24;97279.38;10370425;28;20208;-58
2022/05/08 11:41:19;;;;;;;6.13;5.10;;;;;;;20.91;62.97;97272.59;10369858;28;20204;-56
2022/05/08 11:46:31;;;;;;;7.22;5.05;;;;;;;21.49;60.78;97231.78;10352487;28;20202;-59
2022/05/08 11:51:40;;;;;;;10.23;5.15;;;;;;;22.68;57.23;97183.88;10369672;28;20205;-58
2022/05/08 11:56:40;;;;;;;5.97;4.70;;;;;;;21.23;57.99;97177.59;10369191;28;20231;-58
2022/05/08 12:01:47;;;;;;;7.38;5.70;;;;;;;21.13;60.54;97244.66;10368528;28;20232;-58
2022/05/08 12:07:01;;;;;;;9.35;4.57;;;;;;;20.19;64.20;97301.69;10369144;28;20201;-60
2022/05/08 12:12:21;;;;;;;6.18;4.63;;;;;;;19.85;64.29;97298.16;10368734;28;20256;-57
2022/05/08 12:17:22;;;;;;;6.05;4.90;;;;;;;20.16;62.30;97272.81;10368711;28;20195;-59
2022/05/08 12:22:26;;;;;;;8.50;5.20;;;;;;;19.81;62.77;97263.16;10368557;28;20239;-59
2022/05/08 12:27:28;;;;;;;6.97;5.45;;;;;;;19.67;63.84;97285.41;10368205;28;20232;-57
2022/05/08 12:32:28;;;;;;;9.27;5.40;;;;;;;19.87;63.25;97272.16;10368480;28;20722;-59
2022/05/08 12:37:31;;;;;;;8.77;4.68;;;;;;;20.69;60.96;97242.72;10367726;28;20185;-59
2022/05/08 12:42:32;;;;;;;8.00;5.30;;;;;;;21.56;59.09;97213.91;10367670;28;20237;-58
2022/05/08 12:47:33;;;;;;;10.90;5.15;;;;;;;23.36;54.11;97146.47;10367563;28;20817;-61
2022/05/08 12:52:35;;;;;;;6.90;4.72;;;;;;;22.78;52.87;97111.22;10367393;28;20209;-59
2022/05/08 13:02:54;;;;;;;5.82;5.10;;;;;;;22.57;54.88;97160.56;10366729;28;20225;-59
2022/05/08 13:07:54;;;;;;;6.90;5.43;;;;;;;21.42;57.79;97194.47;10366516;28;20197;-59
2022/05/08 13:12:54;;;;;;;7.32;4.90;;;;;;;20.78;58.28;97199.69;10366712;28;20287;-58
2022/05/08 13:17:55;;;;;;;7.40;4.88;;;;;;;19.45;61.57;97245.66;10367182;28;20288;-58
2022/05/08 13:22:55;;;;;;;12.43;5.55;;;;;;;19.82;60.98;97242.72;10366535;28;20287;-57
2022/05/08 13:27:56;;;;;;;10.10;5.75;;;;;;;20.04;62.73;97273.41;10366909;28;20193;-58
2022/05/08 13:32:56;;;;;;;7.82;5.50;;;;;;;19.05;64.34;97294.13;10366716;28;20197;-54
2022/05/08 13:37:56;;;;;;;8.55;5.80;;;;;;;18.68;66.65;97321.81;10366430;28;20197;-56
2022/05/08 13:42:57;;;;;;;11.30;5.35;;;;;;;18.74;65.53;97304.31;10366499;28;20264;-55
2022/05/08 13:47:57;;;;;;;7.57;5.07;;;;;;;18.61;66.21;97315.66;10366420;28;20193;-57
2022/05/08 13:52:57;;;;;;;10.07;4.85;;;;;;;18.21;66.31;97308.19;10366369;28;20562;-53
2022/05/08 13:57:58;;;;;;;6.05;4.45;;;;;;;18.68;65.64;97300.59;10366127;28;20730;-54
2022/05/08 14:02:59;;;;;;;5.22;4.07;;;;;;;18.90;63.68;97248.31;10365618;28;20233;-59
2022/05/08 14:08:00;;;;;;;6.00;4.20;;;;;;;18.81;64.82;97276.00;10365942;28;20698;-59
2022/05/08 14:13:00;;;;;;;6.68;4.10;;;;;;;18.89;65.37;97295.25;10365850;28;20237;-59
2022/05/08 14:18:00;;;;;;;6.15;3.83;;;;;;;19.72;64.33;97297.03;10366808;28;20262;-55
2022/05/08 14:23:01;;;;;;;4.97;4.47;;;;;;;19.66;62.50;97241.22;10373056;28;20225;-56
2022/05/08 14:28:01;;;;;;;4.43;3.80;;;;;;;19.29;62.61;97235.38;10372741;28;20199;-56
2022/05/08 14:38:21;;;;;;;9.05;3.65;;;;;;;19.42;64.77;97285.94;10372206;28;20185;-54
2022/05/08 14:43:21;;;;;;;6.80;4.22;;;;;;;19.29;63.86;97265.41;10372579;28;20597;-57
2022/05/08 14:48:22;;;;;;;8.05;4.45;;;;;;;18.82;63.97;97256.38;10371807;28;20232;-54
2022/05/08 14:53:22;;;;;;;4.93;4.07;;;;;;;19.04;64.49;97273.09;10371931;28;20241;-53
2022/05/08 14:58:23;;;;;;;5.22;4.10;;;;;;;19.27;63.36;97261.34;10371715;28;20197;-57
2022/05/08 15:03:23;;;;;;;4.85;3.90;;;;;;;19.56;62.36;97236.28;10370961;28;20320;-57
2022/05/08 15:08:24;;;;;;;6.05;3.70;;;;;;;18.99;63.86;97259.56;10371286;28;20203;-57
2022/05/08 15:13:24;;;;;;;5.20;4.07;;;;;;;19.68;62.48;97234.69;10369820;28;20241;-56
2022/05/08 15:23:44;;;;;;;7.60;3.80;;;;;;;22.31;52.54;97062.91;10370025;28;20287;-56
2022/05/08 15:28:45;;;;;;;9.43;3.67;;;;;;;23.92;50.42;97061.44;10370202;28;20216;-58
2022/05/08 15:33:45;;;;;;;4.78;3.53;;;;;;;25.35;46.82;97007.19;10369767;28;20268;-57
2022/05/08 15:38:45;;;;;;;3.55;3.20;;;;;;;24.36;48.21;97022.53;10369881;28;20209;-55
2022/05/08 15:43:46;;;;;;;7.18;3.65;;;;;;;22.89;50.07;97037.53;10370042;28;20217;-58
2022/05/08 15:48:47;;;;;;;4.55;3.53;;;;;;;23.35;51.19;97084.16;10369854;28;20226;-57
2022/05/08 15:53:48;;;;;;;5.68;3.60;;;;;;;25.53;46.28;97030.25;10389736;28;20695;-57
2022/05/08 15:58:49;;;;;;;5.30;3.35;;;;;;;24.25;47.99;97044.78;10409759;28;20197;-54
2022/05/08 16:03:50;;;;;;;6.47;3.72;;;;;;;25.14;46.50;97034.69;10402604;28;20213;-55
2022/05/08 16:08:50;;;;;;;7.25;3.28;;;;;;;24.16;48.30;97055.03;10407888;28;20566;-56
2022/05/08 16:24:28;;;;;;;4.93;3.30;;;;;;;19.51;57.63;97172.28;10408728;28;20228;-54
2022/05/08 16:29:28;;;;;;;8.20;3.35;;;;;;;19.15;58.14;97184.06;10408477;28;20200;-55
2022/05/08 16:34:30;;;;;;;6.97;2.97;;;;;;;19.03;59.03;97200.53;10408233;28;20217;-59
2022/05/08 16:39:31;;;;;;;4.40;3.28;;;;;;;19.21;58.30;97202.66;10408150;28;20201;-53
2022/05/08 16:44:31;;;;;;;5.50;2.80;;;;;;;19.23;58.15;97194.50;10408149;28;20220;-54
2022/05/08 16:49:31;;;;;;;4.60;3.10;;;;;;;19.72;57.40;97190.72;10408130;28;20264;-53
2022/05/08 16:54:33;;;;;;;3.60;2.35;;;;;;;19.14;57.81;97177.94;10408132;28;20591;-57
2022/05/08 16:59:34;;;;;;;8.13;2.90;;;;;;;19.09;58.41;97196.28;10408298;28;20648;-59
2022/05/08 17:04:34;;;;;;;4.50;2.45;;;;;;;18.72;59.08;97209.78;10407486;28;20635;-58
2022/05/08 17:09:34;;;;;;;6.53;2.50;;;;;;;18.97;59.62;97227.09;10407037;28;20896;-57
2022/05/08 17:14:35;;;;;;;4.13;2.33;;;;;;;18.46;60.20;97242.28;10407560;28;20620;-55
2022/05/08 17:19:35;;;;;;;5.43;2.55;;;;;;;18.20;59.94;97236.78;10406472;28;20231;-58
2022/05/08 17:24:36;;;;;;;2.92;2.53;;;;;;;17.80;60.51;97237.22;10383967;28;20311;-56
2022/05/08 17:29:37;;;;;;;8.55;3.25;;;;;;;17.38;61.48;97247.59;10380706;28;20189;-58
2022/05/08 17:34:37;;;;;;;6.00;2.67;;;;;;;17.29;62.03;97261.97;10391864;28;20252;-58
2022/05/08 17:39:39;;;;;;;5.22;2.67;;;;;;;17.18;62.95;97289.72;10384185;28;20296;-55
2022/05/08 17:44:41;;;;;;;5.63;2.70;;;;;;;16.73;64.22;97304.75;10386655;28;20372;-56
2022/05/08 17:49:42;;;;;;;4.13;2.30;;;;;;;16.61;64.87;97333.44;10382141;28;20281;-56
2022/05/08 17:54:43;;;;;;;9.23;2.75;;;;;;;16.29;66.25;97351.22;10390564;28;20958;-57
2022/05/08 17:59:44;;;;;;;5.93;2.63;;;;;;;16.10;66.93;97354.38;10371202;28;20197;-57
2022/05/08 18:10:04;;;;;;;5.60;2.78;;;;;;;15.73;68.78;97393.69;10393202;28;20327;-56
2022/05/08 18:15:05;;;;;;;7.20;2.80;;;;;;;15.54;69.72;97407.28;10396215;28;20241;-55
2022/05/08 18:20:06;;;;;;;5.38;2.72;;;;;;;15.20;70.34;97418.94;10394133;28;20196;-56
2022/05/08 18:25:10;;;;;;;5.53;3.05;;;;;;;14.97;72.19;97441.53;10384548;28;20694;-55
2022/05/08 18:30:11;;;;;;;5.15;3.10;;;;;;;14.49;73.71;97450.25;10409097;28;20262;-55
2022/05/08 18:35:11;;;;;;;5.18;2.85;;;;;;;14.16;75.15;97455.47;10415027;28;20236;-53
2022/05/08 18:40:12;;;;;;;6.47;3.70;;;;;;;13.77;78.16;97446.28;10415527;28;20667;-55
2022/05/08 18:45:18;;;;;;;6.43;3.22;;;;;;;13.25;82.70;97446.31;10414094;28;20772;-58
2022/05/08 18:50:19;;;;;;;7.72;3.97;;;;;;;12.39;88.31;97443.34;10412088;28;20189;-57
2022/05/08 18:55:20;;;;;;;9.90;3.95;;;;;;;12.37;90.14;97442.66;10412858;28;20212;-58
2022/05/08 19:00:20;;;;;;;16.10;8.25;;;;;;;12.36;91.48;97443.66;10421746;22;20323;-58
2022/05/08 19:05:22;;;;;;;11.05;5.32;;;;;;;12.48;92.72;97445.06;10390090;28;20205;-59
2022/05/08 19:10:24;;;;;;;7.43;3.50;;;;;;;12.29;95.43;97455.72;10389060;28;20263;-58
2022/05/08 19:15:24;;;;;;;6.93;3.65;;;;;;;11.92;100.00;97461.88;10390879;28;20276;-55
2022/05/08 19:20:24;;;;;;;8.45;3.80;;;;;;;11.67;100.00;97466.81;10369599;28;20221;-56
2022/05/08 19:25:25;;;;;;;6.45;3.72;;;;;;;11.61;100.00;97477.91;10372970;28;20304;-59
2022/05/08 19:30:25;;;;;;;9.80;3.60;;;;;;;11.58;100.00;97481.63;10372715;28;20209;-60
2022/05/08 19:40:44;;;;;;;10.30;3.63;;;;;;;11.30;100.00;97487.78;10376776;28;20241;-56
2022/05/08 19:45:45;;;;;;;5.93;4.07;;;;;;;10.90;100.00;97492.25;10387943;28;20311;-55
2022/05/08 19:50:45;;;;;;;10.40;3.77;;;;;;;10.89;100.00;97493.25;10391266;28;20217;-53
2022/05/08 19:55:45;;;;;;;8.53;3.97;;;;;;;10.95;100.00;97500.53;10388887;28;20185;-52
2022/05/08 20:00:49;;;;;;;7.67;3.70;;;;;;;10.71;100.00;97495.72;10391562;28;20231;-55
2022/05/08 20:05:51;;;;;;;7.37;3.83;;;;;;;10.60;100.00;97501.09;10389592;28;20214;-54
2022/05/08 20:10:57;;;;;;;7.27;3.97;;;;;;;10.50;100.00;97504.50;10387175;28;20247;-57
2022/05/08 20:15:58;;;;;;;6.53;3.97;;;;;;;10.55;100.00;97508.53;10389083;28;20267;-57
2022/05/08 20:26:17;;;;;;;7.00;3.90;;;;;;;10.38;100.00;97508.22;10386597;28;20205;-55
2022/05/08 20:31:18;;;;;;;9.83;3.93;;;;;;;10.31;100.00;97521.00;10391088;28;20216;-53
2022/05/08 20:36:18;;;;;;;7.50;4.30;;;;;;;10.03;100.00;97521.75;10390351;28;20236;-56
2022/05/08 20:41:20;;;;;;;11.47;4.17;;;;;;;10.14;100.00;97527.72;10396737;28;20295;-55
2022/05/08 20:46:20;;;;;;;6.50;3.97;;;;;;;10.01;100.00;97524.50;10402633;28;20224;-54
2022/05/08 20:51:20;;;;;;;9.53;4.90;;;;;;;10.11;100.00;97533.22;10392030;28;20584;-57
2022/05/08 20:56:21;;;;;;;8.30;4.10;;;;;;;9.82;100.00;97533.94;10410915;28;20690;-53
2022/05/08 21:01:22;;;;;;;7.70;4.00;;;;;;;9.68;100.00;97534.31;10411020;28;20637;-53
2022/05/08 21:11:41;;;;;;;7.53;4.10;;;;;;;9.54;100.00;97537.25;10403417;28;20212;-56
2022/05/08 21:16:42;;;;;;;6.33;3.93;;;;;;;9.36;100.00;97534.41;10388431;28;20675;-56
2022/05/08 21:21:42;;;;;;;7.83;4.33;;;;;;;9.12;100.00;97548.56;10388003;28;20243;-54
2022/05/08 21:26:45;;;;;;;8.57;4.50;;;;;;;8.85;100.00;97544.66;10381746;28;20215;-54
2022/05/08 21:31:45;;;;;;;12.83;4.37;;;;;;;8.76;100.00;97550.63;10381965;28;20304;-52
2022/05/08 21:36:45;;;;;;;9.53;4.07;;;;;;;8.62;100.00;97551.72;10378194;28;20276;-53
2022/05/08 21:41:46;;;;;;;6.93;4.20;;;;;;;8.54;100.00;97557.53;10377647;28;20227;-52
2022/05/08 21:46:46;;;;;;;8.07;4.03;;;;;;;8.42;100.00;97555.06;10377295;28;20181;-54
2022/05/08 21:51:47;;;;;;;8.07;4.10;;;;;;;8.20;100.00;97561.97;10377529;28;20624;-52
2022/05/08 21:56:49;;;;;;;10.13;4.30;;;;;;;8.05;100.00;97571.84;10377219;28;20617;-51
2022/05/08 22:01:49;;;;;;;6.23;4.27;;;;;;;7.97;100.00;97574.22;10376883;28;20307;-54
2022/05/08 22:06:49;;;;;;;7.77;4.40;;;;;;;7.87;100.00;97571.47;10376338;28;20201;-53
2022/05/08 22:11:50;;;;;;;8.90;4.50;;;;;;;7.76;100.00;97571.47;10375635;28;20247;-55
2022/05/08 22:16:50;;;;;;;9.33;4.33;;;;;;;7.73;100.00;97569.91;10375058;28;20215;-54
2022/05/08 22:21:51;;;;;;;9.63;4.10;;;;;;;7.55;100.00;97576.53;10375956;28;20247;-53
2022/05/08 22:26:52;;;;;;;10.57;4.30;;;;;;;7.35;100.00;97580.66;10375852;28;20196;-57
2022/05/08 22:31:52;;;;;;;9.37;4.80;;;;;;;7.31;100.00;97586.09;10375450;28;20251;-51
2022/05/08 22:36:54;;;;;;;8.27;4.13;;;;;;;7.43;100.00;97576.53;10375551;28;20194;-51
2022/05/08 22:41:55;;;;;;;7.83;4.13;;;;;;;7.45;100.00;97574.63;10374611;28;20209;-54
2022/05/08 22:46:55;;;;;;;10.00;4.53;;;;;;;7.47;100.00;97577.13;10381008;28;20216;-58
2022/05/08 22:51:55;;;;;;;6.57;4.00;;;;;;;7.48;100.00;97577.00;10388597;28;20742;-55
2022/05/08 22:56:56;;;;;;;15.27;4.77;;;;;;;7.50;100.00;97569.91;10377250;28;20711;-53
2022/05/08 23:01:56;;;;;;;8.83;4.27;;;;;;;7.54;100.00;97573.13;10374655;28;20241;-52
2022/05/08 23:06:57;;;;;;;6.37;4.00;;;;;;;7.53;100.00;97586.25;10373945;28;20193;-52
2022/05/08 23:11:57;;;;;;;6.07;3.20;;;;;;;7.40;100.00;97581.97;10374232;28;20205;-55
2022/05/08 23:16:57;;;;;;;7.73;4.13;;;;;;;7.23;100.00;97582.38;10373620;28;20415;-51
2022/05/08 23:21:58;;;;;;;6.13;3.83;;;;;;;7.20;100.00;97582.63;10373515;28;20639;-53
2022/05/08 23:26:58;;;;;;;8.27;3.80;;;;;;;7.11;100.00;97579.75;10373670;28;20196;-52
2022/05/08 23:31:58;;;;;;;8.10;4.17;;;;;;;6.99;100.00;97590.25;10372820;28;20213;-52
2022/05/08 23:37:04;;;;;;;11.30;4.07;;;;;;;6.88;100.00;97583.22;10373155;28;20232;-53
2022/05/08 23:42:05;;;;;;;6.53;3.30;;;;;;;6.82;100.00;97584.50;10372593;28;20217;-53
2022/05/08 23:47:05;;;;;;;8.57;3.60;;;;;;;6.70;100.00;97590.59;10372245;28;20189;-54
2022/05/08 23:52:09;;;;;;;5.60;3.23;;;;;;;6.64;100.00;97591.84;10371770;28;20615;-52
2022/05/08 23:57:09;;;;;;;10.03;3.63;;;;;;;6.57;100.00;97581.06;10371918;28;20200;-53
